Hauptseite
METAR-TAF:

METAR-TAF

Flughäfen :

Flughafen Beira

Beira, Mosambik

Breite: 19-48S, Länge: 034-54E, Höhe: 8 m

Beobachtung

Neuester Wetterbericht von vor 43 Minuten, um 18:00 UTC
Wind 13 kt aus Ost
Temperatur 27°C
Luftfeuchtigkeit 79%
Luftdruck 1008 hPa
Sichtweite 10 km oder mehr
Leicht bewölkt in der Höhe von 2000 ft

METAR: FQBR 071800Z 10013KT 9999 FEW020 27/23 Q1008

Zeit: 20:43 (18:43 UTC)

Prognose

Neuester Wetterbericht von vor 8 Stunden und 43 Minuten, um 10:00 UTC
Gültige Prognose vom 07 um 12 UTC bis 08 um 18 UTC
Wind 10 kt aus Ost, Böen bis zu 20 kt
Sichtweite 10 km oder mehr
Aufgelockert bewölkt in der Höhe von 2000 ft
Übergehend zu
vom 07 um 20 UTC bis 07 um 22 UTC
Wind 8 kt aus Nord/Nordost
Übergehend zu
vom 08 um 08 UTC bis 08 um 10 UTC
Wind 12 kt aus Ost

TAF: FQBR 071000Z 0712/0818 10010G20KT 9999 SCT020 TX30/0713Z TN22/0803Z BECMG 0720/0722 03008KT BECMG 0808/0810 09012KT

Wetterbeobachtungen und Prognosen von mehr als 4000 Flughäfen (METAR und TAF Bericht).

Die verfügbaren Stationen werden durch gelbe und rote Markierungen auf der Karte dargestellt.

Führen Sie die Maus auf sie, um den Namen der Station zu sehen.

Darauf klicken, um die Beobachtung von Wetterbeobachtungen und Prognosen zu sehen.

Um die Karte zu ändern : klicken Sie auf den grünen Tasten mit einem schwarzen Kreuz Zum Vergrößern, auf den grünen Button mit einem Gedankenstrich zu verkleinern, oder auf die grünen Pfeile für benachbarte Karten.


METAR-TAF: